Time;durP1;ratioP1;P1;durP2;ratioP2;P2;SDS_P1;SDS_P2;PMS_P1;PMS_P2;Temp;Humidity;BMP_temperature;BMP_pressure;BME280_temperature;BME280_humidity;BME280_pressure;Samples;Min_cycle;Max_cycle;Signal;HPM_P1;HPM_P2
2022/09/23 00:05:00;;;;;;;0.57;0.35;;;;;;;7.18;100.00;102076.41;10412996;28;20034;-77
2022/09/23 00:10:02;;;;;;;0.35;0.30;;;;;;;7.02;100.00;102074.63;10431848;28;20049;-77
2022/09/23 00:15:04;;;;;;;0.15;0.15;;;;;;;7.06;100.00;102067.22;10416361;28;20473;-77
2022/09/23 00:20:08;;;;;;;0.10;0.10;;;;;;;7.09;100.00;102066.50;10402345;28;20067;-78
2022/09/23 00:25:10;;;;;;;0.00;0.00;;;;;;;7.04;100.00;102058.56;10399722;28;20042;-77
2022/09/23 00:30:12;;;;;;;1.05;0.77;;;;;;;6.89;100.00;102053.38;10417357;28;20059;-77
2022/09/23 00:35:14;;;;;;;0.10;0.10;;;;;;;6.71;100.00;102057.44;10428363;28;20048;-77
2022/09/23 00:40:15;;;;;;;0.30;0.25;;;;;;;6.77;100.00;102068.03;10417287;28;20049;-77
2022/09/23 00:45:18;;;;;;;0.40;0.10;;;;;;;6.70;100.00;102071.91;10399471;28;20053;-77
2022/09/23 00:50:36;;;;;;;0.40;0.20;;;;;;;6.67;100.00;102072.59;10414901;28;20128;-76
2022/09/23 00:55:44;;;;;;;1.02;0.75;;;;;;;6.66;100.00;102085.31;10414605;28;20496;-77
2022/09/23 01:00:46;;;;;;;0.05;0.05;;;;;;;6.64;100.00;102077.53;10427201;28;20046;-77
2022/09/23 01:05:48;;;;;;;1.40;0.82;;;;;;;6.76;100.00;102066.25;10446147;28;20076;-77
2022/09/23 01:10:57;;;;;;;0.10;0.10;;;;;;;6.73;100.00;102071.22;10435439;28;20092;-78
2022/09/23 01:16:08;;;;;;;0.38;0.38;;;;;;;6.69;100.00;102056.44;10414537;28;20037;-77
2022/09/23 01:21:16;;;;;;;0.15;0.15;;;;;;;6.62;100.00;102053.50;10414185;28;20049;-78
2022/09/23 01:26:57;;;;;;;0.65;0.60;;;;;;;6.87;100.00;102042.19;10415058;28;20412;-78
2022/09/23 01:32:25;;;;;;;0.28;0.28;;;;;;;7.20;100.00;102024.44;10411201;28;20037;-78
2022/09/23 01:37:45;;;;;;;0.85;0.68;;;;;;;7.56;100.00;101988.00;10413384;28;20054;-78
2022/09/23 01:42:57;;;;;;;;;;;;;;;7.83;100.00;101950.16;10413377;28;20046;-78
2022/09/23 01:48:09;;;;;;;;;;;;;;;7.89;100.00;101914.53;10414086;28;20372;-79
2022/09/23 01:53:22;;;;;;;1.13;0.85;;;;;;;7.91;100.00;101895.00;10416868;28;19932;-78
2022/09/23 01:58:31;;;;;;;0.57;0.43;;;;;;;7.97;100.00;101847.34;10413304;28;20073;-79
2022/09/23 02:03:41;;;;;;;0.45;0.20;;;;;;;8.07;100.00;101839.34;10413992;28;20040;-78
2022/09/23 02:08:50;;;;;;;0.37;0.27;;;;;;;8.00;100.00;101827.00;10411220;28;20049;-78
2022/09/23 02:14:10;;;;;;;1.08;0.70;;;;;;;8.02;100.00;101833.06;10412924;28;20501;-78
2022/09/23 02:19:14;;;;;;;0.33;0.27;;;;;;;7.93;100.00;101831.78;10413244;28;20099;-78
2022/09/23 02:24:24;;;;;;;0.38;0.30;;;;;;;7.89;100.00;101829.88;10412533;28;20041;-79
2022/09/23 02:29:48;;;;;;;3.50;0.40;;;;;;;7.82;100.00;101827.78;10400915;28;20150;-78
2022/09/23 02:35:14;;;;;;;0.00;0.00;;;;;;;7.29;100.00;101845.53;10409159;28;20699;-79
2022/09/23 02:40:22;;;;;;;0.38;0.15;;;;;;;7.32;100.00;101861.88;10425855;28;20049;-78
2022/09/23 02:45:24;;;;;;;0.08;0.08;;;;;;;7.03;100.00;101861.16;10411889;28;20052;-78
2022/09/23 02:50:25;;;;;;;1.48;1.15;;;;;;;6.87;100.00;101865.44;10410816;28;20053;-78
2022/09/23 02:55:31;;;;;;;0.28;0.28;;;;;;;6.80;100.00;101878.69;10425823;28;20468;-78
2022/09/23 03:00:48;;;;;;;0.70;0.15;;;;;;;6.85;100.00;101874.69;10397821;28;20092;-78
2022/09/23 03:05:57;;;;;;;0.93;0.70;;;;;;;6.99;100.00;101876.34;10399409;28;20037;-78
2022/09/23 03:11:05;;;;;;;0.85;0.70;;;;;;;7.18;100.00;101862.03;10410411;28;20045;-78
2022/09/23 03:16:30;;;;;;;0.75;0.22;;;;;;;7.28;100.00;101856.59;10410832;28;20053;-78
2022/09/23 03:22:07;;;;;;;0.13;0.13;;;;;;;7.27;100.00;101844.56;10392551;28;20052;-78
2022/09/23 03:27:15;;;;;;;0.15;0.15;;;;;;;7.43;100.00;101835.13;10372382;28;20054;-77
2022/09/23 03:32:20;;;;;;;2.10;0.85;;;;;;;7.61;100.00;101833.56;10410191;28;20124;-78
2022/09/23 03:37:30;;;;;;;1.00;0.63;;;;;;;7.57;100.00;101823.06;10415731;28;20557;-78
2022/09/23 03:42:33;;;;;;;0.93;0.53;;;;;;;7.60;100.00;101818.97;10410128;28;20499;-78
2022/09/23 03:47:35;;;;;;;2.70;1.10;;;;;;;7.49;100.00;101802.13;10409400;28;20405;-78
2022/09/23 03:52:38;;;;;;;0.85;0.45;;;;;;;7.66;100.00;101799.56;10410007;28;20121;-79
2022/09/23 03:57:40;;;;;;;0.45;0.20;;;;;;;7.61;100.00;101795.09;10407819;28;20200;-78
2022/09/23 04:02:42;;;;;;;0.60;0.35;;;;;;;7.62;100.00;101788.28;10408709;28;20069;-78
2022/09/23 04:07:44;;;;;;;0.22;0.20;;;;;;;7.61;100.00;101787.41;10408902;28;20480;-78
2022/09/23 04:12:46;;;;;;;0.95;0.63;;;;;;;7.66;100.00;101781.63;10409622;28;20122;-78
2022/09/23 04:17:47;;;;;;;0.57;0.28;;;;;;;7.72;100.00;101774.25;10409128;28;20053;-78
2022/09/23 04:22:49;;;;;;;1.75;0.95;;;;;;;7.68;100.00;101777.47;10408165;28;20077;-78
2022/09/23 04:27:50;;;;;;;0.88;0.50;;;;;;;7.68;100.00;101774.91;10407804;28;20045;-78
2022/09/23 04:32:52;;;;;;;1.48;0.75;;;;;;;7.68;100.00;101777.47;10413798;28;20079;-78
2022/09/23 04:37:53;;;;;;;0.63;0.52;;;;;;;7.44;100.00;101785.63;10407582;28;20140;-78
2022/09/23 04:42:55;;;;;;;0.52;0.30;;;;;;;7.49;100.00;101791.88;10417485;28;20129;-78
2022/09/23 04:47:57;;;;;;;0.20;0.20;;;;;;;7.44;100.00;101788.19;10418898;28;20110;-78
2022/09/23 04:52:58;;;;;;;0.50;0.40;;;;;;;7.50;100.00;101793.63;10415495;28;20117;-78
2022/09/23 04:58:00;;;;;;;0.45;0.40;;;;;;;7.51;100.00;101792.84;10415628;28;20067;-78
2022/09/23 05:03:02;;;;;;;3.10;1.65;;;;;;;7.51;100.00;101789.41;10417443;28;20124;-78
2022/09/23 05:08:03;;;;;;;0.10;0.10;;;;;;;7.51;100.00;101800.53;10413741;28;20053;-78
2022/09/23 05:13:05;;;;;;;0.20;0.20;;;;;;;7.56;100.00;101793.97;10397824;28;20124;-79
2022/09/23 05:18:06;;;;;;;2.58;1.00;;;;;;;7.50;100.00;101783.38;10414856;28;20116;-78
2022/09/23 05:23:08;;;;;;;0.20;0.20;;;;;;;7.53;100.00;101796.38;10413208;28;20042;-78
2022/09/23 05:28:09;;;;;;;0.43;0.38;;;;;;;7.51;100.00;101785.16;10410625;28;20116;-79
2022/09/23 05:33:11;;;;;;;1.25;0.43;;;;;;;7.51;100.00;101780.03;10408968;28;20041;-78
2022/09/23 05:38:15;;;;;;;0.30;0.22;;;;;;;7.70;100.00;101792.13;10395565;28;20481;-78
2022/09/23 05:43:17;;;;;;;1.00;0.55;;;;;;;7.81;100.00;101781.53;10411839;28;20046;-78
2022/09/23 05:48:18;;;;;;;0.57;0.43;;;;;;;7.99;100.00;101776.47;10408852;28;20161;-79
2022/09/23 05:53:20;;;;;;;0.95;0.80;;;;;;;8.34;100.00;101775.63;10408373;28;20536;-78
2022/09/23 05:58:23;;;;;;;0.73;0.50;;;;;;;8.37;100.00;101764.66;10411478;28;20053;-79
2022/09/23 06:03:24;;;;;;;0.55;0.38;;;;;;;8.52;100.00;101756.81;10408886;28;20053;-79
2022/09/23 06:08:26;;;;;;;0.10;0.10;;;;;;;8.70;100.00;101751.69;10401531;28;20042;-78
2022/09/23 06:13:28;;;;;;;0.43;0.32;;;;;;;8.96;100.00;101752.03;10391775;28;20128;-78
2022/09/23 06:18:29;;;;;;;0.73;0.60;;;;;;;9.43;100.00;101743.00;10411056;28;20132;-78
2022/09/23 06:23:31;;;;;;;2.63;1.38;;;;;;;9.71;100.00;101726.22;10412525;28;20080;-78
2022/09/23 06:28:36;;;;;;;0.60;0.57;;;;;;;9.70;100.00;101721.88;10410720;28;20128;-78
2022/09/23 06:33:38;;;;;;;0.43;0.43;;;;;;;9.66;100.00;101736.28;10409734;28;20115;-79
2022/09/23 06:38:42;;;;;;;0.63;0.55;;;;;;;9.70;100.00;101742.44;10414987;28;20055;-79
2022/09/23 06:43:44;;;;;;;4.90;1.23;;;;;;;9.59;100.00;101744.56;10411920;28;20042;-78
2022/09/23 06:48:47;;;;;;;2.10;0.65;;;;;;;9.67;100.00;101750.03;10399971;28;20037;-78
2022/09/23 06:53:49;;;;;;;1.00;0.98;;;;;;;9.74;100.00;101759.78;10409097;28;20133;-78
2022/09/23 06:58:51;;;;;;;0.90;0.63;;;;;;;9.79;100.00;101758.25;10409675;28;20041;-78
2022/09/23 07:03:53;;;;;;;0.32;0.30;;;;;;;9.83;100.00;101755.03;10410193;28;20034;-78
2022/09/23 07:08:54;;;;;;;0.43;0.38;;;;;;;9.91;100.00;101731.31;10407464;28;20128;-78
2022/09/23 07:13:56;;;;;;;1.00;0.77;;;;;;;10.06;100.00;101731.94;10427996;28;20131;-78
2022/09/23 07:18:58;;;;;;;0.13;0.13;;;;;;;10.11;100.00;101735.56;10404804;28;20128;-78
2022/09/23 07:24:00;;;;;;;2.30;0.85;;;;;;;10.27;100.00;101731.06;10399183;28;20053;-78
2022/09/23 07:29:04;;;;;;;1.60;0.75;;;;;;;10.35;100.00;101732.25;10405686;28;20059;-78
2022/09/23 07:34:08;;;;;;;1.13;1.05;;;;;;;10.61;100.00;101727.28;10388837;28;20544;-78
2022/09/23 07:39:11;;;;;;;0.20;0.20;;;;;;;10.66;100.00;101712.88;10404776;28;20056;-79
2022/09/23 07:44:12;;;;;;;0.57;0.57;;;;;;;10.73;100.00;101707.13;10409573;28;20073;-78
2022/09/23 07:49:14;;;;;;;0.40;0.40;;;;;;;10.99;100.00;101699.47;10420315;28;20034;-78
2022/09/23 07:54:17;;;;;;;0.55;0.52;;;;;;;11.24;100.00;101700.38;10425341;28;20124;-78
2022/09/23 07:59:18;;;;;;;1.02;0.60;;;;;;;11.26;100.00;101693.59;10418207;28;20064;-78
2022/09/23 08:04:21;;;;;;;0.45;0.28;;;;;;;11.38;100.00;101681.13;10396839;28;20132;-77
2022/09/23 08:09:30;;;;;;;0.10;0.10;;;;;;;11.68;100.00;101672.69;10417131;28;20049;-78
2022/09/23 08:14:32;;;;;;;0.73;0.50;;;;;;;12.00;100.00;101675.47;10412785;28;20073;-78
2022/09/23 08:19:48;;;;;;;1.23;0.73;;;;;;;12.20;100.00;101677.81;10409234;28;20065;-79
2022/09/23 08:24:50;;;;;;;1.45;0.65;;;;;;;11.91;100.00;101659.66;10412089;28;20037;-78
2022/09/23 08:29:54;;;;;;;0.20;0.20;;;;;;;12.10;100.00;101662.88;10432033;28;20412;-78
2022/09/23 08:34:55;;;;;;;0.60;0.38;;;;;;;12.41;100.00;101671.56;10410904;28;20044;-78
2022/09/23 08:39:58;;;;;;;0.75;0.47;;;;;;;12.81;100.00;101665.00;10411869;28;20037;-79
2022/09/23 08:45:04;;;;;;;0.40;0.40;;;;;;;12.97;100.00;101658.53;10416590;28;20040;-79
2022/09/23 08:50:16;;;;;;;0.00;0.00;;;;;;;13.13;100.00;101657.28;10418572;28;20049;-79
2022/09/23 08:55:22;;;;;;;0.30;0.30;;;;;;;13.90;100.00;101648.91;10420772;28;20033;-79
2022/09/23 09:00:39;;;;;;;0.82;0.47;;;;;;;13.77;100.00;101639.09;10420511;28;20079;-79
2022/09/23 09:05:40;;;;;;;0.47;0.40;;;;;;;14.07;100.00;101643.25;10420770;28;20037;-79
2022/09/23 09:10:45;;;;;;;0.98;0.30;;;;;;;14.41;100.00;101636.22;10408825;28;20073;-78
2022/09/23 09:16:14;;;;;;;0.47;0.35;;;;;;;14.62;100.00;101628.06;10418159;28;20065;-79
2022/09/23 09:21:16;;;;;;;1.27;0.43;;;;;;;14.36;100.00;101630.97;10408214;28;20128;-78
2022/09/23 09:26:26;;;;;;;0.88;0.40;;;;;;;14.68;100.00;101616.97;10419097;28;20410;-79
2022/09/23 09:31:32;;;;;;;1.15;0.30;;;;;;;14.79;100.00;101615.44;10425135;28;20049;-79
2022/09/23 09:36:44;;;;;;;0.15;0.15;;;;;;;14.31;100.00;101616.16;10418234;28;20523;-78
2022/09/23 09:41:51;;;;;;;0.57;0.20;;;;;;;14.93;100.00;101607.94;10418528;28;20060;-79
2022/09/23 09:47:19;;;;;;;0.28;0.28;;;;;;;14.54;100.00;101608.84;10418557;28;20038;-79
2022/09/23 09:52:28;;;;;;;0.65;0.47;;;;;;;14.52;100.00;101601.06;10417730;28;20107;-78
2022/09/23 09:57:37;;;;;;;1.33;0.68;;;;;;;14.82;100.00;101594.78;10397757;28;20148;-78
2022/09/23 10:02:38;;;;;;;0.52;0.30;;;;;;;14.84;100.00;101593.09;10395698;28;20411;-79
2022/09/23 10:07:40;;;;;;;0.82;0.45;;;;;;;14.95;100.00;101585.50;10408397;28;20111;-78
2022/09/23 10:12:45;;;;;;;1.17;0.82;;;;;;;15.20;100.00;101576.44;10396306;28;20128;-77
2022/09/23 10:17:50;;;;;;;1.38;0.38;;;;;;;15.44;100.00;101574.22;10411999;28;20088;-78
2022/09/23 10:22:51;;;;;;;0.95;0.43;;;;;;;15.89;100.00;101572.38;10393389;28;20128;-77
2022/09/23 10:27:53;;;;;;;2.63;0.52;;;;;;;15.60;100.00;101572.78;10412356;28;20069;-78
2022/09/23 10:32:55;;;;;;;0.88;0.43;;;;;;;15.78;100.00;101570.44;10412704;28;20137;-78
2022/09/23 10:38:00;;;;;;;1.23;0.35;;;;;;;16.06;100.00;101570.88;10411183;28;20115;-78
2022/09/23 10:48:59;;;;;;;0.75;0.55;;;;;;;15.88;100.00;101570.63;10405220;28;20050;-78
2022/09/23 10:54:13;;;;;;;0.65;0.57;;;;;;;15.89;100.00;101577.56;10402453;28;20030;-77
2022/09/23 10:59:51;;;;;;;0.30;0.30;;;;;;;16.45;100.00;101556.66;10402356;28;20052;-78
2022/09/23 11:05:04;;;;;;;1.65;0.45;;;;;;;16.58;100.00;101549.88;10409265;28;20049;-78
2022/09/23 11:10:48;;;;;;;0.57;0.30;;;;;;;16.77;100.00;101550.94;10404952;28;20136;-79
2022/09/23 11:16:05;;;;;;;0.47;0.47;;;;;;;16.56;100.00;101555.91;10394101;28;20045;-78
2022/09/23 11:21:30;;;;;;;0.47;0.35;;;;;;;16.68;100.00;101550.84;10411205;28;20041;-78
2022/09/23 11:26:41;;;;;;;0.60;0.47;;;;;;;15.94;100.00;101549.91;10415709;28;20037;-79
2022/09/23 11:32:03;;;;;;;0.63;0.43;;;;;;;16.27;100.00;101543.44;10396049;28;20416;-79
2022/09/23 11:37:12;;;;;;;0.85;0.28;;;;;;;16.56;100.00;101530.75;10410528;28;20037;-79
2022/09/23 11:42:27;;;;;;;0.55;0.55;;;;;;;16.30;100.00;101539.16;10417929;28;20136;-78
2022/09/23 11:47:42;;;;;;;0.60;0.45;;;;;;;16.06;100.00;101533.63;10411068;28;20125;-78
2022/09/23 11:52:50;;;;;;;1.13;0.30;;;;;;;16.34;100.00;101520.13;10409754;28;20569;-78
2022/09/23 11:57:56;;;;;;;0.50;0.30;;;;;;;16.08;100.00;101522.38;10392120;28;20037;-78
2022/09/23 12:03:08;;;;;;;0.17;0.17;;;;;;;16.43;100.00;101518.47;10424560;28;20096;-78
2022/09/23 12:08:27;;;;;;;0.93;0.60;;;;;;;16.54;100.00;101518.59;10433485;28;20045;-78
2022/09/23 12:14:00;;;;;;;0.60;0.60;;;;;;;16.51;100.00;101516.84;10417124;28;20134;-78
2022/09/23 12:19:20;;;;;;;0.68;0.68;;;;;;;16.55;100.00;101510.81;10417036;28;20073;-78
2022/09/23 12:24:55;;;;;;;0.35;0.30;;;;;;;16.75;100.00;101511.00;10416775;28;20124;-78
2022/09/23 12:30:20;;;;;;;0.45;0.20;;;;;;;16.31;100.00;101496.66;10407724;28;20116;-78
2022/09/23 12:35:30;;;;;;;2.70;0.55;;;;;;;16.69;100.00;101497.94;10427931;28;20427;-78
2022/09/23 12:40:39;;;;;;;0.30;0.30;;;;;;;16.67;100.00;101491.84;10404874;28;20046;-78
2022/09/23 12:45:40;;;;;;;0.22;0.22;;;;;;;17.07;100.00;101492.25;10416070;28;20492;-78
2022/09/23 12:51:15;;;;;;;0.20;0.20;;;;;;;17.39;100.00;101489.00;10412516;28;20041;-79
2022/09/23 12:56:23;;;;;;;0.65;0.55;;;;;;;16.95;100.00;101476.53;10404791;28;20051;-78
2022/09/23 13:01:25;;;;;;;0.77;0.40;;;;;;;17.01;100.00;101480.91;10409205;28;20041;-77
2022/09/23 13:06:39;;;;;;;0.95;0.38;;;;;;;17.23;100.00;101476.75;10411043;28;20046;-77
2022/09/23 13:11:44;;;;;;;0.47;0.38;;;;;;;17.25;100.00;101468.09;10416799;28;20128;-78
2022/09/23 13:16:46;;;;;;;0.10;0.10;;;;;;;17.28;100.00;101462.03;10409470;28;20041;-78
2022/09/23 13:21:49;;;;;;;0.80;0.47;;;;;;;17.61;100.00;101452.66;10413181;28;20623;-78
2022/09/23 13:27:14;;;;;;;0.20;0.20;;;;;;;17.58;100.00;101443.09;10404361;28;20046;-78
2022/09/23 13:32:17;;;;;;;0.40;0.40;;;;;;;17.29;100.00;101443.81;10408296;28;20041;-78
2022/09/23 13:37:22;;;;;;;2.08;0.68;;;;;;;17.08;100.00;101447.16;10422024;28;20041;-78
2022/09/23 13:42:29;;;;;;;0.40;0.10;;;;;;;16.91;100.00;101448.72;10410374;28;20568;-78
2022/09/23 13:47:34;;;;;;;0.45;0.40;;;;;;;17.00;100.00;101438.41;10408195;28;20053;-78
2022/09/23 13:52:36;;;;;;;0.20;0.20;;;;;;;16.96;100.00;101441.81;10412261;28;20412;-77
2022/09/23 13:57:37;;;;;;;1.23;0.50;;;;;;;17.26;100.00;101424.69;10423070;28;20540;-78
2022/09/23 14:02:43;;;;;;;1.15;0.30;;;;;;;16.95;100.00;101440.09;10413642;28;20132;-78
2022/09/23 14:07:48;;;;;;;0.63;0.63;;;;;;;16.96;100.00;101426.22;10412777;28;20049;-78
2022/09/23 14:12:51;;;;;;;0.63;0.50;;;;;;;17.05;100.00;101422.84;10415742;28;20067;-78
2022/09/23 14:18:01;;;;;;;0.73;0.30;;;;;;;17.00;100.00;101420.19;10419669;28;20056;-78
2022/09/23 14:23:09;;;;;;;0.28;0.20;;;;;;;16.89;100.00;101414.88;10432119;28;20046;-77
2022/09/23 14:28:17;;;;;;;1.75;0.98;;;;;;;16.88;100.00;101414.84;10414277;28;20049;-77
2022/09/23 14:33:25;;;;;;;0.55;0.47;;;;;;;16.89;100.00;101403.56;10442315;28;20060;-78
2022/09/23 14:43:53;;;;;;;0.98;0.88;;;;;;;16.69;100.00;101404.28;10416923;28;20112;-78
2022/09/23 14:49:16;;;;;;;0.65;0.63;;;;;;;16.78;100.00;101396.56;10410723;28;20048;-78
2022/09/23 14:54:40;;;;;;;0.90;0.40;;;;;;;16.71;100.00;101394.78;10408890;28;20065;-78
2022/09/23 14:59:50;;;;;;;1.05;0.45;;;;;;;16.74;100.00;101389.56;10406707;28;20089;-79
2022/09/23 15:05:34;;;;;;;0.45;0.45;;;;;;;16.65;100.00;101389.50;10418192;28;20045;-77
2022/09/23 15:10:38;;;;;;;0.30;0.30;;;;;;;16.71;100.00;101379.16;10391160;28;20045;-78
2022/09/23 15:15:41;;;;;;;0.17;0.17;;;;;;;16.57;100.00;101381.63;10408439;28;20065;-78
2022/09/23 15:20:56;;;;;;;0.20;0.17;;;;;;;16.50;100.00;101369.44;10413268;28;20041;-77
2022/09/23 15:26:04;;;;;;;1.65;1.10;;;;;;;16.51;100.00;101371.19;10418676;28;20076;-76
2022/09/23 15:31:10;;;;;;;0.32;0.30;;;;;;;16.52;100.00;101366.84;10441906;28;20045;-77
2022/09/23 15:36:26;;;;;;;0.50;0.50;;;;;;;16.43;100.00;101373.69;10416729;28;20049;-77
2022/09/23 15:41:28;;;;;;;0.50;0.50;;;;;;;16.42;100.00;101376.31;10403596;28;20095;-77
2022/09/23 15:46:32;;;;;;;0.93;0.63;;;;;;;16.40;100.00;101378.91;10390732;28;20125;-77
2022/09/23 15:51:36;;;;;;;1.38;0.75;;;;;;;16.30;100.00;101383.13;10408114;28;20061;-77
2022/09/23 15:56:37;;;;;;;0.28;0.28;;;;;;;16.39;100.00;101376.25;10393682;28;20413;-77
2022/09/23 16:01:41;;;;;;;0.52;0.40;;;;;;;16.29;100.00;101373.59;10413408;28;20588;-77
2022/09/23 16:06:44;;;;;;;1.92;0.85;;;;;;;16.16;100.00;101379.50;10409622;28;20049;-77
2022/09/23 16:11:48;;;;;;;0.68;0.68;;;;;;;16.15;100.00;101381.25;10407340;28;20108;-77
2022/09/23 16:16:49;;;;;;;1.50;0.88;;;;;;;16.04;100.00;101375.06;10405142;28;20041;-77
2022/09/23 16:21:51;;;;;;;0.85;0.50;;;;;;;16.03;100.00;101378.53;10402093;28;20069;-77
2022/09/23 16:26:58;;;;;;;0.98;0.60;;;;;;;16.00;100.00;101368.06;10394162;28;20077;-77
2022/09/23 16:32:00;;;;;;;0.75;0.75;;;;;;;16.05;100.00;101366.41;10394602;28;20045;-76
2022/09/23 16:37:03;;;;;;;1.02;0.90;;;;;;;15.96;100.00;101361.97;10382289;28;20045;-76
2022/09/23 16:42:05;;;;;;;1.77;1.33;;;;;;;15.91;100.00;101367.97;10385530;28;20512;-76
2022/09/23 16:47:07;;;;;;;2.45;1.65;;;;;;;15.84;100.00;101362.72;10396961;28;20483;-76
2022/09/23 16:52:10;;;;;;;1.38;1.25;;;;;;;15.53;100.00;101361.44;10397964;28;20053;-76
2022/09/23 16:57:16;;;;;;;1.52;0.88;;;;;;;15.51;100.00;101366.63;10417366;28;20081;-78
2022/09/23 17:07:38;;;;;;;0.45;0.38;;;;;;;15.31;100.00;101381.94;10401499;28;20053;-77
2022/09/23 17:12:39;;;;;;;0.28;0.17;;;;;;;15.09;100.00;101385.06;10408182;28;20089;-77
2022/09/23 17:17:41;;;;;;;0.20;0.20;;;;;;;15.16;100.00;101374.78;10425378;28;20033;-77
2022/09/23 17:22:43;;;;;;;1.60;1.20;;;;;;;15.04;100.00;101390.19;10404497;28;20100;-78
2022/09/23 17:27:47;;;;;;;0.32;0.30;;;;;;;14.98;100.00;101397.88;10406572;28;20038;-77
2022/09/23 17:32:51;;;;;;;1.65;0.95;;;;;;;14.73;100.00;101397.47;10400023;28;20080;-77
2022/09/23 17:37:53;;;;;;;3.47;1.10;;;;;;;14.72;100.00;101400.91;10422111;28;20065;-77
2022/09/23 17:42:55;;;;;;;5.90;1.02;;;;;;;14.71;100.00;101396.56;10421084;28;20502;-77
2022/09/23 17:47:56;;;;;;;2.42;0.75;;;;;;;14.73;100.00;101392.28;10414915;28;20073;-76
2022/09/23 17:52:59;;;;;;;2.20;1.35;;;;;;;14.65;100.00;101393.84;10387249;28;20439;-76
2022/09/23 17:58:00;;;;;;;1.55;1.25;;;;;;;14.50;100.00;101402.25;10412444;28;20049;-76
2022/09/23 18:03:02;;;;;;;0.88;0.75;;;;;;;14.42;100.00;101409.88;10413181;28;20053;-76
2022/09/23 18:08:04;;;;;;;3.05;0.90;;;;;;;14.17;100.00;101430.16;10412382;28;20045;-76
2022/09/23 18:13:06;;;;;;;4.20;1.20;;;;;;;14.06;100.00;101434.25;10394850;28;20081;-77
2022/09/23 18:18:08;;;;;;;0.82;0.68;;;;;;;13.96;100.00;101431.44;10403632;28;20512;-77
2022/09/23 18:23:09;;;;;;;0.50;0.40;;;;;;;13.99;100.00;101432.38;10414897;28;20064;-77
2022/09/23 18:28:11;;;;;;;0.80;0.77;;;;;;;13.91;100.00;101435.69;10411690;28;20084;-77
2022/09/23 18:33:14;;;;;;;0.00;0.00;;;;;;;13.82;100.00;101443.25;10411432;28;20099;-77
2022/09/23 18:38:15;;;;;;;1.00;0.68;;;;;;;13.92;100.00;101442.59;10429178;28;20076;-78
2022/09/23 18:43:17;;;;;;;0.75;0.65;;;;;;;13.88;100.00;101458.94;10404345;28;20054;-75
2022/09/23 18:53:40;;;;;;;;;;;;;;;13.85;100.00;101465.78;10427072;28;20405;-76
2022/09/23 18:58:47;;;;;;;0.00;0.00;;;;;;;13.91;100.00;101481.44;10446466;28;19944;-76
2022/09/23 19:03:54;;;;;;;0.25;0.22;;;;;;;13.52;100.00;101503.88;10451932;28;20060;-76
2022/09/23 19:08:57;;;;;;;0.20;0.15;;;;;;;13.37;100.00;101519.00;10436726;28;20103;-76
2022/09/23 19:14:00;;;;;;;6.65;0.93;;;;;;;13.30;100.00;101534.38;10438025;28;20042;-76
2022/09/23 19:19:03;;;;;;;1.20;0.82;;;;;;;13.28;100.00;101540.34;10455180;28;20064;-76
2022/09/23 19:24:06;;;;;;;1.35;0.70;;;;;;;13.32;100.00;101548.25;10444974;28;20104;-76
2022/09/23 19:29:12;;;;;;;1.55;1.13;;;;;;;13.08;100.00;101571.78;10433100;28;20048;-76
2022/09/23 19:34:18;;;;;;;1.65;1.40;;;;;;;13.15;100.00;101583.16;10445663;28;20045;-76
2022/09/23 19:39:25;;;;;;;4.55;1.40;;;;;;;13.08;100.00;101586.41;10419882;28;20049;-76
2022/09/23 19:44:27;;;;;;;1.83;1.00;;;;;;;13.20;100.00;101578.09;10431135;28;20069;-76
2022/09/23 19:49:29;;;;;;;0.57;0.32;;;;;;;13.15;100.00;101583.16;10415206;28;20053;-76
2022/09/23 19:54:31;;;;;;;0.40;0.40;;;;;;;13.05;100.00;101594.09;10412343;28;20532;-76
2022/09/23 19:59:33;;;;;;;1.20;0.80;;;;;;;13.16;100.00;101598.72;10415210;28;20061;-76
2022/09/23 20:04:34;;;;;;;1.55;0.57;;;;;;;13.21;100.00;101600.56;10443229;28;20038;-76
2022/09/23 20:09:36;;;;;;;0.17;0.15;;;;;;;13.21;100.00;101598.84;10429601;28;20045;-75
2022/09/23 20:14:38;;;;;;;0.00;0.00;;;;;;;13.05;100.00;101594.09;10427737;28;20102;-76
2022/09/23 20:19:39;;;;;;;0.45;0.45;;;;;;;13.08;100.00;101594.16;10408335;28;20049;-76
2022/09/23 20:24:41;;;;;;;0.00;0.00;;;;;;;13.07;100.00;101597.63;10426731;28;20042;-76
2022/09/23 20:29:42;;;;;;;0.20;0.20;;;;;;;13.13;100.00;101602.94;10409819;28;20049;-76
2022/09/23 20:34:48;;;;;;;0.20;0.20;;;;;;;13.12;100.00;101694.34;10443335;28;20042;-76
2022/09/23 20:39:51;;;;;;;0.40;0.32;;;;;;;13.05;100.00;101692.41;10412688;28;20049;-76
2022/09/23 20:44:53;;;;;;;0.00;0.00;;;;;;;13.00;100.00;101684.50;10431406;28;20395;-76
2022/09/23 20:49:55;;;;;;;0.10;0.10;;;;;;;12.96;100.00;101673.19;10446565;28;20045;-76
2022/09/23 20:54:57;;;;;;;0.03;0.03;;;;;;;12.93;100.00;101677.41;10430625;28;20044;-76
2022/09/23 20:59:59;;;;;;;0.45;0.13;;;;;;;12.80;100.00;101692.59;10432382;28;20029;-76
2022/09/23 21:05:00;;;;;;;0.00;0.00;;;;;;;12.83;100.00;101686.63;10410726;28;20038;-76
2022/09/23 21:10:05;;;;;;;0.00;0.00;;;;;;;12.72;100.00;101685.41;10427601;28;20404;-76
2022/09/23 21:15:07;;;;;;;1.85;0.65;;;;;;;12.70;100.00;101691.41;10435273;28;20049;-76
2022/09/23 21:20:11;;;;;;;0.10;0.10;;;;;;;12.64;100.00;101688.66;10436606;28;20049;-76
2022/09/23 21:25:12;;;;;;;0.63;0.30;;;;;;;12.68;100.00;101693.09;10449571;28;20060;-76
2022/09/23 21:30:28;;;;;;;0.68;0.50;;;;;;;12.44;100.00;101687.16;10418855;28;20587;-76
2022/09/23 21:35:30;;;;;;;0.00;0.00;;;;;;;12.40;100.00;101691.38;10467414;28;20116;-76
2022/09/23 21:46:04;;;;;;;0.65;0.40;;;;;;;12.57;100.00;101694.47;10424572;28;20144;-76
2022/09/23 21:51:08;;;;;;;2.05;0.85;;;;;;;12.56;100.00;101695.28;10442455;28;20053;-76
2022/09/23 21:56:13;;;;;;;0.47;0.47;;;;;;;12.49;100.00;101699.41;10392502;28;20072;-76
2022/09/23 22:01:22;;;;;;;0.40;0.40;;;;;;;12.28;100.00;101706.50;10424369;28;20045;-78
2022/09/23 22:06:26;;;;;;;0.90;0.60;;;;;;;12.22;100.00;101712.34;10422759;28;20077;-78
2022/09/23 22:16:56;;;;;;;1.30;0.95;;;;;;;12.29;100.00;101709.13;10416396;28;20041;-78
2022/09/23 22:21:58;;;;;;;1.63;0.93;;;;;;;12.44;100.00;101700.09;10397859;28;20064;-77
2022/09/23 22:26:59;;;;;;;3.15;0.98;;;;;;;12.37;100.00;101697.31;10415725;28;20117;-78
2022/09/23 22:37:32;;;;;;;3.80;1.33;;;;;;;12.36;100.00;101694.69;10422544;28;20041;-78
2022/09/23 22:42:35;;;;;;;1.10;0.93;;;;;;;12.35;100.00;101704.13;10414413;28;20136;-77
2022/09/23 22:47:38;;;;;;;1.52;1.25;;;;;;;12.31;100.00;101691.97;10401595;28;20042;-77
2022/09/23 22:52:40;;;;;;;3.58;1.73;;;;;;;12.32;100.00;101695.41;10414144;28;20428;-77
2022/09/23 22:57:41;;;;;;;1.55;1.00;;;;;;;12.32;100.00;101706.63;10419266;28;20061;-77
2022/09/23 23:02:44;;;;;;;3.55;2.05;;;;;;;12.33;100.00;101700.63;10414077;28;20558;-76
2022/09/23 23:07:45;;;;;;;2.55;1.63;;;;;;;12.33;100.00;101703.22;10413416;28;20045;-77
2022/09/23 23:12:48;;;;;;;2.42;1.73;;;;;;;12.36;100.00;101705.91;10395496;28;20073;-76
2022/09/23 23:17:52;;;;;;;3.05;1.60;;;;;;;12.42;100.00;101717.25;10411294;28;20045;-76
2022/09/23 23:22:54;;;;;;;2.33;1.58;;;;;;;12.38;100.00;101714.59;10406514;28;20072;-76
2022/09/23 23:27:56;;;;;;;2.83;1.70;;;;;;;12.37;100.00;101718.00;10416924;28;20136;-76
2022/09/23 23:32:58;;;;;;;2.75;1.27;;;;;;;12.34;100.00;101738.56;10410863;28;20539;-77
2022/09/23 23:37:59;;;;;;;2.08;1.13;;;;;;;12.29;100.00;101740.13;10419211;28;20041;-76
2022/09/23 23:43:02;;;;;;;2.90;1.20;;;;;;;12.33;100.00;101736.78;10413116;28;20041;-75
2022/09/23 23:48:03;;;;;;;1.85;1.25;;;;;;;12.32;100.00;101731.59;10412312;28;20129;-76
2022/09/23 23:53:05;;;;;;;1.85;1.50;;;;;;;12.32;100.00;101734.16;10411524;28;20136;-76
2022/09/23 23:58:07;;;;;;;0.73;0.63;;;;;;;12.29;100.00;101737.53;10438199;28;20042;-76
